sensor_id;sensor_type;location;lat;lon;timestamp;temperature;humidity
44229;DHT22;29904;51.058;5.378;2023-04-03T00:01:45;3.10;99.90
44229;DHT22;29904;51.058;5.378;2023-04-03T00:04:10;3.10;99.90
44229;DHT22;29904;51.058;5.378;2023-04-03T00:06:36;3.10;99.90
44229;DHT22;29904;51.058;5.378;2023-04-03T00:09:02;3.00;99.90
44229;DHT22;29904;51.058;5.378;2023-04-03T00:11:28;3.00;99.90
44229;DHT22;29904;51.058;5.378;2023-04-03T00:13:53;3.00;99.90
44229;DHT22;29904;51.058;5.378;2023-04-03T00:16:20;3.00;99.90
44229;DHT22;29904;51.058;5.378;2023-04-03T00:18:45;3.00;99.90
44229;DHT22;29904;51.058;5.378;2023-04-03T00:21:13;2.90;99.90
44229;DHT22;29904;51.058;5.378;2023-04-03T00:23:41;3.00;99.90
44229;DHT22;29904;51.058;5.378;2023-04-03T00:26:06;2.90;99.90
44229;DHT22;29904;51.058;5.378;2023-04-03T00:28:32;2.90;99.90
44229;DHT22;29904;51.058;5.378;2023-04-03T00:31:00;2.80;99.90
44229;DHT22;29904;51.058;5.378;2023-04-03T00:33:26;2.80;99.90
44229;DHT22;29904;51.058;5.378;2023-04-03T00:35:54;2.80;99.90
44229;DHT22;29904;51.058;5.378;2023-04-03T00:38:19;2.70;99.90
44229;DHT22;29904;51.058;5.378;2023-04-03T00:40:47;2.70;99.90
44229;DHT22;29904;51.058;5.378;2023-04-03T00:43:16;2.70;99.90
44229;DHT22;29904;51.058;5.378;2023-04-03T00:45:44;2.70;99.90
44229;DHT22;29904;51.058;5.378;2023-04-03T00:50:59;2.70;99.90
44229;DHT22;29904;51.058;5.378;2023-04-03T00:53:39;2.70;99.90
44229;DHT22;29904;51.058;5.378;2023-04-03T00:56:08;2.60;99.90
44229;DHT22;29904;51.058;5.378;2023-04-03T00:58:51;2.60;99.90
44229;DHT22;29904;51.058;5.378;2023-04-03T01:01:21;2.60;99.90
44229;DHT22;29904;51.058;5.378;2023-04-03T01:03:48;2.60;99.90
44229;DHT22;29904;51.058;5.378;2023-04-03T01:06:17;2.60;99.90
44229;DHT22;29904;51.058;5.378;2023-04-03T01:08:45;2.50;99.90
44229;DHT22;29904;51.058;5.378;2023-04-03T01:11:12;2.50;99.90
44229;DHT22;29904;51.058;5.378;2023-04-03T01:13:38;2.50;99.90
44229;DHT22;29904;51.058;5.378;2023-04-03T01:16:06;2.50;99.90
44229;DHT22;29904;51.058;5.378;2023-04-03T01:18:35;2.50;99.90
44229;DHT22;29904;51.058;5.378;2023-04-03T01:21:28;2.40;99.90
44229;DHT22;29904;51.058;5.378;2023-04-03T01:26:40;2.40;99.90
44229;DHT22;29904;51.058;5.378;2023-04-03T01:29:05;2.40;99.90
44229;DHT22;29904;51.058;5.378;2023-04-03T01:34:05;2.30;99.90
44229;DHT22;29904;51.058;5.378;2023-04-03T01:36:32;2.20;99.90
44229;DHT22;29904;51.058;5.378;2023-04-03T01:38:59;2.20;99.90
44229;DHT22;29904;51.058;5.378;2023-04-03T01:41:25;2.20;99.90
44229;DHT22;29904;51.058;5.378;2023-04-03T01:43:51;2.10;99.90
44229;DHT22;29904;51.058;5.378;2023-04-03T01:46:18;2.10;99.90
44229;DHT22;29904;51.058;5.378;2023-04-03T01:48:44;2.00;99.90
44229;DHT22;29904;51.058;5.378;2023-04-03T01:51:12;2.00;99.90
44229;DHT22;29904;51.058;5.378;2023-04-03T01:53:37;2.00;99.90
44229;DHT22;29904;51.058;5.378;2023-04-03T01:56:03;2.00;99.90
44229;DHT22;29904;51.058;5.378;2023-04-03T01:58:31;1.90;99.90
44229;DHT22;29904;51.058;5.378;2023-04-03T02:00:57;1.90;99.90
44229;DHT22;29904;51.058;5.378;2023-04-03T02:03:23;1.80;99.90
44229;DHT22;29904;51.058;5.378;2023-04-03T02:05:51;1.80;99.90
44229;DHT22;29904;51.058;5.378;2023-04-03T02:08:16;1.80;99.90
44229;DHT22;29904;51.058;5.378;2023-04-03T02:10:47;1.80;99.90
44229;DHT22;29904;51.058;5.378;2023-04-03T02:13:13;1.80;99.90
44229;DHT22;29904;51.058;5.378;2023-04-03T02:15:39;1.80;99.90
44229;DHT22;29904;51.058;5.378;2023-04-03T02:18:05;1.70;99.90
44229;DHT22;29904;51.058;5.378;2023-04-03T02:20:33;1.80;99.90
44229;DHT22;29904;51.058;5.378;2023-04-03T02:23:01;1.70;99.90
44229;DHT22;29904;51.058;5.378;2023-04-03T02:25:28;1.80;99.90
44229;DHT22;29904;51.058;5.378;2023-04-03T02:27:53;1.80;99.90
44229;DHT22;29904;51.058;5.378;2023-04-03T02:30:19;1.70;99.90
44229;DHT22;29904;51.058;5.378;2023-04-03T02:32:45;1.80;99.90
44229;DHT22;29904;51.058;5.378;2023-04-03T02:35:11;1.80;99.90
44229;DHT22;29904;51.058;5.378;2023-04-03T02:37:39;1.80;99.90
44229;DHT22;29904;51.058;5.378;2023-04-03T02:40:06;1.80;99.90
44229;DHT22;29904;51.058;5.378;2023-04-03T02:42:32;1.80;99.90
44229;DHT22;29904;51.058;5.378;2023-04-03T02:44:59;1.80;99.90
44229;DHT22;29904;51.058;5.378;2023-04-03T02:47:28;1.70;99.90
44229;DHT22;29904;51.058;5.378;2023-04-03T02:49:54;1.70;99.90
44229;DHT22;29904;51.058;5.378;2023-04-03T02:52:20;1.70;99.90
44229;DHT22;29904;51.058;5.378;2023-04-03T02:54:48;1.70;99.90
44229;DHT22;29904;51.058;5.378;2023-04-03T02:57:13;1.70;99.90
44229;DHT22;29904;51.058;5.378;2023-04-03T02:59:39;1.70;99.90
44229;DHT22;29904;51.058;5.378;2023-04-03T03:02:07;1.70;99.90
44229;DHT22;29904;51.058;5.378;2023-04-03T03:04:33;1.70;99.90
44229;DHT22;29904;51.058;5.378;2023-04-03T03:06:59;1.60;99.90
44229;DHT22;29904;51.058;5.378;2023-04-03T03:09:26;1.60;99.90
44229;DHT22;29904;51.058;5.378;2023-04-03T03:11:52;1.50;99.90
44229;DHT22;29904;51.058;5.378;2023-04-03T03:14:18;1.50;99.90
44229;DHT22;29904;51.058;5.378;2023-04-03T03:16:44;1.40;99.90
44229;DHT22;29904;51.058;5.378;2023-04-03T03:19:10;1.40;99.90
44229;DHT22;29904;51.058;5.378;2023-04-03T03:21:35;1.40;99.90
44229;DHT22;29904;51.058;5.378;2023-04-03T03:24:03;1.40;99.90
44229;DHT22;29904;51.058;5.378;2023-04-03T03:26:29;1.30;99.90
44229;DHT22;29904;51.058;5.378;2023-04-03T03:28:55;1.40;99.90
44229;DHT22;29904;51.058;5.378;2023-04-03T03:31:23;1.30;99.90
44229;DHT22;29904;51.058;5.378;2023-04-03T03:33:48;1.40;99.90
44229;DHT22;29904;51.058;5.378;2023-04-03T03:36:14;1.40;99.90
44229;DHT22;29904;51.058;5.378;2023-04-03T03:38:40;1.40;99.90
44229;DHT22;29904;51.058;5.378;2023-04-03T03:41:06;1.40;99.90
44229;DHT22;29904;51.058;5.378;2023-04-03T03:43:31;1.40;99.90
44229;DHT22;29904;51.058;5.378;2023-04-03T03:45:58;1.40;99.90
44229;DHT22;29904;51.058;5.378;2023-04-03T03:48:23;1.40;99.90
44229;DHT22;29904;51.058;5.378;2023-04-03T03:50:50;1.50;99.90
44229;DHT22;29904;51.058;5.378;2023-04-03T03:53:17;1.40;99.90
44229;DHT22;29904;51.058;5.378;2023-04-03T03:55:44;1.40;99.90
44229;DHT22;29904;51.058;5.378;2023-04-03T03:58:10;1.40;99.90
44229;DHT22;29904;51.058;5.378;2023-04-03T04:00:38;1.40;99.90
44229;DHT22;29904;51.058;5.378;2023-04-03T04:03:04;1.30;99.90
44229;DHT22;29904;51.058;5.378;2023-04-03T04:05:30;1.30;99.90
44229;DHT22;29904;51.058;5.378;2023-04-03T04:07:56;1.30;99.90
44229;DHT22;29904;51.058;5.378;2023-04-03T04:10:21;1.30;99.90
44229;DHT22;29904;51.058;5.378;2023-04-03T04:12:47;1.30;99.90
44229;DHT22;29904;51.058;5.378;2023-04-03T04:15:16;1.20;99.90
44229;DHT22;29904;51.058;5.378;2023-04-03T04:17:43;1.20;99.90
44229;DHT22;29904;51.058;5.378;2023-04-03T04:20:09;1.20;99.90
44229;DHT22;29904;51.058;5.378;2023-04-03T04:22:37;1.20;99.90
44229;DHT22;29904;51.058;5.378;2023-04-03T04:25:04;1.20;99.90
44229;DHT22;29904;51.058;5.378;2023-04-03T04:27:30;1.20;99.90
44229;DHT22;29904;51.058;5.378;2023-04-03T04:29:56;1.20;99.90
44229;DHT22;29904;51.058;5.378;2023-04-03T04:32:22;1.20;99.90
44229;DHT22;29904;51.058;5.378;2023-04-03T04:34:47;1.30;99.90
44229;DHT22;29904;51.058;5.378;2023-04-03T04:37:13;1.30;99.90
44229;DHT22;29904;51.058;5.378;2023-04-03T04:39:39;1.30;99.90
44229;DHT22;29904;51.058;5.378;2023-04-03T04:42:04;1.20;99.90
44229;DHT22;29904;51.058;5.378;2023-04-03T04:44:33;1.30;99.90
44229;DHT22;29904;51.058;5.378;2023-04-03T04:47:01;1.30;99.90
44229;DHT22;29904;51.058;5.378;2023-04-03T04:49:26;1.30;99.90
44229;DHT22;29904;51.058;5.378;2023-04-03T04:51:54;1.30;99.90
44229;DHT22;29904;51.058;5.378;2023-04-03T04:54:20;1.30;99.90
44229;DHT22;29904;51.058;5.378;2023-04-03T04:56:46;1.20;99.90
44229;DHT22;29904;51.058;5.378;2023-04-03T04:59:12;1.20;99.90
44229;DHT22;29904;51.058;5.378;2023-04-03T05:01:38;1.20;99.90
44229;DHT22;29904;51.058;5.378;2023-04-03T05:04:04;1.10;99.90
44229;DHT22;29904;51.058;5.378;2023-04-03T05:06:29;1.20;99.90
44229;DHT22;29904;51.058;5.378;2023-04-03T05:08:57;1.10;99.90
44229;DHT22;29904;51.058;5.378;2023-04-03T05:11:23;1.10;99.90
44229;DHT22;29904;51.058;5.378;2023-04-03T05:13:49;1.10;99.90
44229;DHT22;29904;51.058;5.378;2023-04-03T05:16:15;1.10;99.90
44229;DHT22;29904;51.058;5.378;2023-04-03T05:18:40;1.10;99.90
44229;DHT22;29904;51.058;5.378;2023-04-03T05:21:06;1.10;99.90
44229;DHT22;29904;51.058;5.378;2023-04-03T05:23:32;1.10;99.90
44229;DHT22;29904;51.058;5.378;2023-04-03T05:25:57;1.20;99.90
44229;DHT22;29904;51.058;5.378;2023-04-03T05:28:23;1.20;99.90
44229;DHT22;29904;51.058;5.378;2023-04-03T05:30:57;1.20;99.90
44229;DHT22;29904;51.058;5.378;2023-04-03T05:33:23;1.20;99.90
44229;DHT22;29904;51.058;5.378;2023-04-03T05:35:50;1.20;99.90
44229;DHT22;29904;51.058;5.378;2023-04-03T05:38:16;1.30;99.90
44229;DHT22;29904;51.058;5.378;2023-04-03T05:40:41;1.40;99.90
44229;DHT22;29904;51.058;5.378;2023-04-03T05:43:07;1.50;99.90
44229;DHT22;29904;51.058;5.378;2023-04-03T05:45:35;1.60;99.90
44229;DHT22;29904;51.058;5.378;2023-04-03T05:48:03;2.10;99.90
44229;DHT22;29904;51.058;5.378;2023-04-03T05:50:28;2.60;99.90
44229;DHT22;29904;51.058;5.378;2023-04-03T05:52:57;3.10;99.90
44229;DHT22;29904;51.058;5.378;2023-04-03T05:55:24;3.60;99.90
44229;DHT22;29904;51.058;5.378;2023-04-03T05:57:50;3.90;99.90
44229;DHT22;29904;51.058;5.378;2023-04-03T06:00:17;3.90;99.90
44229;DHT22;29904;51.058;5.378;2023-04-03T06:02:43;4.00;99.90
44229;DHT22;29904;51.058;5.378;2023-04-03T06:05:12;4.00;99.90
44229;DHT22;29904;51.058;5.378;2023-04-03T06:07:38;4.00;99.90
44229;DHT22;29904;51.058;5.378;2023-04-03T06:10:06;4.40;99.90
44229;DHT22;29904;51.058;5.378;2023-04-03T06:12:33;4.20;99.90
44229;DHT22;29904;51.058;5.378;2023-04-03T06:14:58;4.20;99.90
44229;DHT22;29904;51.058;5.378;2023-04-03T06:17:25;4.30;99.90
44229;DHT22;29904;51.058;5.378;2023-04-03T06:19:53;4.70;99.90
44229;DHT22;29904;51.058;5.378;2023-04-03T06:22:18;5.00;99.90
44229;DHT22;29904;51.058;5.378;2023-04-03T06:24:47;5.20;99.90
44229;DHT22;29904;51.058;5.378;2023-04-03T06:27:12;4.80;99.90
44229;DHT22;29904;51.058;5.378;2023-04-03T06:29:38;4.30;99.90
44229;DHT22;29904;51.058;5.378;2023-04-03T06:32:04;4.30;99.90
44229;DHT22;29904;51.058;5.378;2023-04-03T06:34:32;4.60;99.90
44229;DHT22;29904;51.058;5.378;2023-04-03T06:36:58;4.90;99.90
44229;DHT22;29904;51.058;5.378;2023-04-03T06:39:23;4.80;99.90
44229;DHT22;29904;51.058;5.378;2023-04-03T06:41:51;4.70;99.90
44229;DHT22;29904;51.058;5.378;2023-04-03T06:44:17;4.60;99.90
44229;DHT22;29904;51.058;5.378;2023-04-03T06:46:44;4.50;99.90
44229;DHT22;29904;51.058;5.378;2023-04-03T06:49:10;4.50;99.90
44229;DHT22;29904;51.058;5.378;2023-04-03T06:51:37;4.70;99.90
44229;DHT22;29904;51.058;5.378;2023-04-03T06:54:04;5.00;99.90
44229;DHT22;29904;51.058;5.378;2023-04-03T06:56:33;5.40;99.90
44229;DHT22;29904;51.058;5.378;2023-04-03T06:58:59;5.30;99.90
44229;DHT22;29904;51.058;5.378;2023-04-03T07:01:26;5.10;99.90
44229;DHT22;29904;51.058;5.378;2023-04-03T07:03:53;5.10;99.90
44229;DHT22;29904;51.058;5.378;2023-04-03T07:06:19;5.00;99.90
44229;DHT22;29904;51.058;5.378;2023-04-03T07:08:45;5.00;99.90
44229;DHT22;29904;51.058;5.378;2023-04-03T07:11:12;5.00;99.90
44229;DHT22;29904;51.058;5.378;2023-04-03T07:13:38;5.10;99.90
44229;DHT22;29904;51.058;5.378;2023-04-03T07:16:04;5.10;99.90
44229;DHT22;29904;51.058;5.378;2023-04-03T07:18:33;5.20;99.90
44229;DHT22;29904;51.058;5.378;2023-04-03T07:20:59;5.20;99.90
44229;DHT22;29904;51.058;5.378;2023-04-03T07:23:27;5.20;99.90
44229;DHT22;29904;51.058;5.378;2023-04-03T07:25:53;5.30;99.90
44229;DHT22;29904;51.058;5.378;2023-04-03T07:28:22;5.50;99.90
44229;DHT22;29904;51.058;5.378;2023-04-03T07:30:59;5.80;99.90
44229;DHT22;29904;51.058;5.378;2023-04-03T07:33:25;5.90;99.90
44229;DHT22;29904;51.058;5.378;2023-04-03T07:35:51;5.60;99.90
44229;DHT22;29904;51.058;5.378;2023-04-03T07:38:17;5.60;99.90
44229;DHT22;29904;51.058;5.378;2023-04-03T07:40:50;5.70;99.90
44229;DHT22;29904;51.058;5.378;2023-04-03T07:43:18;5.70;99.90
44229;DHT22;29904;51.058;5.378;2023-04-03T07:45:46;5.40;99.90
44229;DHT22;29904;51.058;5.378;2023-04-03T07:48:15;5.40;99.90
44229;DHT22;29904;51.058;5.378;2023-04-03T07:50:43;5.30;99.90
44229;DHT22;29904;51.058;5.378;2023-04-03T07:53:10;5.30;99.90
44229;DHT22;29904;51.058;5.378;2023-04-03T07:55:40;5.20;99.90
44229;DHT22;29904;51.058;5.378;2023-04-03T07:58:13;5.20;99.90
44229;DHT22;29904;51.058;5.378;2023-04-03T08:00:40;5.30;99.90
44229;DHT22;29904;51.058;5.378;2023-04-03T08:03:07;5.40;99.90
44229;DHT22;29904;51.058;5.378;2023-04-03T08:05:39;5.50;99.90
44229;DHT22;29904;51.058;5.378;2023-04-03T08:08:06;5.50;99.90
44229;DHT22;29904;51.058;5.378;2023-04-03T08:10:32;5.70;99.90
44229;DHT22;29904;51.058;5.378;2023-04-03T08:12:58;5.70;99.90
44229;DHT22;29904;51.058;5.378;2023-04-03T08:15:24;5.70;99.90
44229;DHT22;29904;51.058;5.378;2023-04-03T08:17:50;5.90;99.90
44229;DHT22;29904;51.058;5.378;2023-04-03T08:20:16;5.90;99.90
44229;DHT22;29904;51.058;5.378;2023-04-03T08:22:44;5.90;99.90
44229;DHT22;29904;51.058;5.378;2023-04-03T08:25:10;6.10;99.90
44229;DHT22;29904;51.058;5.378;2023-04-03T08:27:36;6.10;99.90
44229;DHT22;29904;51.058;5.378;2023-04-03T08:30:05;6.20;99.90
44229;DHT22;29904;51.058;5.378;2023-04-03T08:32:33;6.20;99.90
44229;DHT22;29904;51.058;5.378;2023-04-03T08:34:58;6.20;99.90
44229;DHT22;29904;51.058;5.378;2023-04-03T08:37:24;6.30;99.90
44229;DHT22;29904;51.058;5.378;2023-04-03T08:39:50;6.30;99.90
44229;DHT22;29904;51.058;5.378;2023-04-03T08:45:32;6.50;99.90
44229;DHT22;29904;51.058;5.378;2023-04-03T08:48:07;6.50;99.90
44229;DHT22;29904;51.058;5.378;2023-04-03T08:50:43;6.60;99.90
44229;DHT22;29904;51.058;5.378;2023-04-03T08:53:22;6.60;99.90
44229;DHT22;29904;51.058;5.378;2023-04-03T08:55:51;6.70;99.90
44229;DHT22;29904;51.058;5.378;2023-04-03T08:58:24;6.70;99.90
44229;DHT22;29904;51.058;5.378;2023-04-03T09:01:03;6.80;99.90
44229;DHT22;29904;51.058;5.378;2023-04-03T09:03:34;6.70;99.90
44229;DHT22;29904;51.058;5.378;2023-04-03T09:06:25;6.80;99.90
44229;DHT22;29904;51.058;5.378;2023-04-03T09:22:44;7.30;99.90
44229;DHT22;29904;51.058;5.378;2023-04-03T09:25:20;7.30;99.90
44229;DHT22;29904;51.058;5.378;2023-04-03T09:27:48;7.50;99.90
44229;DHT22;29904;51.058;5.378;2023-04-03T09:30:19;7.50;99.90
44229;DHT22;29904;51.058;5.378;2023-04-03T09:32:47;7.50;99.90
44229;DHT22;29904;51.058;5.378;2023-04-03T09:35:19;7.50;99.90
44229;DHT22;29904;51.058;5.378;2023-04-03T09:37:48;7.50;99.90
44229;DHT22;29904;51.058;5.378;2023-04-03T09:40:33;7.50;99.90
44229;DHT22;29904;51.058;5.378;2023-04-03T09:43:24;7.60;99.90
44229;DHT22;29904;51.058;5.378;2023-04-03T09:45:52;7.70;99.90
44229;DHT22;29904;51.058;5.378;2023-04-03T09:48:21;7.80;99.90
44229;DHT22;29904;51.058;5.378;2023-04-03T09:53:38;7.70;99.90
44229;DHT22;29904;51.058;5.378;2023-04-03T10:04:12;8.00;99.90
44229;DHT22;29904;51.058;5.378;2023-04-03T10:06:49;8.10;99.90
44229;DHT22;29904;51.058;5.378;2023-04-03T10:09:29;8.10;99.90
44229;DHT22;29904;51.058;5.378;2023-04-03T10:14:29;8.30;99.90
44229;DHT22;29904;51.058;5.378;2023-04-03T10:17:17;8.30;99.90
44229;DHT22;29904;51.058;5.378;2023-04-03T10:19:50;8.20;99.90
44229;DHT22;29904;51.058;5.378;2023-04-03T10:28:04;8.50;99.90
44229;DHT22;29904;51.058;5.378;2023-04-03T10:46:43;8.70;99.90
44229;DHT22;29904;51.058;5.378;2023-04-03T10:52:37;9.00;99.90
44229;DHT22;29904;51.058;5.378;2023-04-03T10:58:01;9.30;99.90
44229;DHT22;29904;51.058;5.378;2023-04-03T11:00:45;9.50;99.90
44229;DHT22;29904;51.058;5.378;2023-04-03T11:03:40;9.50;99.90
44229;DHT22;29904;51.058;5.378;2023-04-03T11:06:10;9.50;99.90
44229;DHT22;29904;51.058;5.378;2023-04-03T11:11:36;9.50;99.90
44229;DHT22;29904;51.058;5.378;2023-04-03T11:14:24;9.40;98.80
44229;DHT22;29904;51.058;5.378;2023-04-03T11:20:10;9.40;99.90
44229;DHT22;29904;51.058;5.378;2023-04-03T11:22:54;9.40;98.40
44229;DHT22;29904;51.058;5.378;2023-04-03T11:25:25;9.30;97.90
44229;DHT22;29904;51.058;5.378;2023-04-03T11:28:03;9.20;99.30
44229;DHT22;29904;51.058;5.378;2023-04-03T11:33:16;9.30;99.00
44229;DHT22;29904;51.058;5.378;2023-04-03T11:35:48;9.20;99.90
44229;DHT22;29904;51.058;5.378;2023-04-03T11:38:25;9.50;99.90
44229;DHT22;29904;51.058;5.378;2023-04-03T11:40:53;9.50;99.90
44229;DHT22;29904;51.058;5.378;2023-04-03T11:43:30;9.70;99.90
44229;DHT22;29904;51.058;5.378;2023-04-03T11:46:05;9.80;99.20
44229;DHT22;29904;51.058;5.378;2023-04-03T11:53:43;9.90;98.60
44229;DHT22;29904;51.058;5.378;2023-04-03T11:56:27;9.80;99.60
44229;DHT22;29904;51.058;5.378;2023-04-03T12:01:46;9.80;96.40
44229;DHT22;29904;51.058;5.378;2023-04-03T12:04:13;9.80;98.70
44229;DHT22;29904;51.058;5.378;2023-04-03T12:06:43;10.00;96.70
44229;DHT22;29904;51.058;5.378;2023-04-03T12:11:59;10.10;96.70
44229;DHT22;29904;51.058;5.378;2023-04-03T12:14:25;10.30;97.50
44229;DHT22;29904;51.058;5.378;2023-04-03T12:16:55;10.50;94.10
44229;DHT22;29904;51.058;5.378;2023-04-03T12:19:40;10.20;92.60
44229;DHT22;29904;51.058;5.378;2023-04-03T12:22:19;10.20;92.50
44229;DHT22;29904;51.058;5.378;2023-04-03T12:24:52;10.00;92.00
44229;DHT22;29904;51.058;5.378;2023-04-03T12:30:04;10.30;96.20
44229;DHT22;29904;51.058;5.378;2023-04-03T12:46:19;10.20;95.10
44229;DHT22;29904;51.058;5.378;2023-04-03T12:48:58;10.10;95.90
44229;DHT22;29904;51.058;5.378;2023-04-03T12:51:40;10.20;94.50
44229;DHT22;29904;51.058;5.378;2023-04-03T12:54:19;10.30;96.90
44229;DHT22;29904;51.058;5.378;2023-04-03T12:56:45;10.40;95.60
44229;DHT22;29904;51.058;5.378;2023-04-03T12:59:23;10.40;94.80
44229;DHT22;29904;51.058;5.378;2023-04-03T13:02:00;10.40;95.90
44229;DHT22;29904;51.058;5.378;2023-04-03T13:04:31;10.60;96.50
44229;DHT22;29904;51.058;5.378;2023-04-03T13:06:57;10.50;96.40
44229;DHT22;29904;51.058;5.378;2023-04-03T13:09:30;10.50;96.70
44229;DHT22;29904;51.058;5.378;2023-04-03T13:12:16;10.60;96.90
44229;DHT22;29904;51.058;5.378;2023-04-03T13:14:52;10.70;99.90
44229;DHT22;29904;51.058;5.378;2023-04-03T13:17:19;10.90;98.30
44229;DHT22;29904;51.058;5.378;2023-04-03T13:19:45;10.90;96.40
44229;DHT22;29904;51.058;5.378;2023-04-03T13:24:55;10.90;94.80
44229;DHT22;29904;51.058;5.378;2023-04-03T13:27:22;10.80;97.10
44229;DHT22;29904;51.058;5.378;2023-04-03T13:29:54;10.90;97.40
44229;DHT22;29904;51.058;5.378;2023-04-03T13:32:24;10.80;96.90
44229;DHT22;29904;51.058;5.378;2023-04-03T13:34:51;10.80;97.20
44229;DHT22;29904;51.058;5.378;2023-04-03T13:37:29;10.60;95.40
44229;DHT22;29904;51.058;5.378;2023-04-03T13:40:01;10.60;98.00
44229;DHT22;29904;51.058;5.378;2023-04-03T13:42:30;10.60;96.20
44229;DHT22;29904;51.058;5.378;2023-04-03T13:45:28;10.80;96.70
44229;DHT22;29904;51.058;5.378;2023-04-03T13:48:16;10.90;97.20
44229;DHT22;29904;51.058;5.378;2023-04-03T13:51:05;10.90;98.20
44229;DHT22;29904;51.058;5.378;2023-04-03T13:56:34;11.00;96.60
44229;DHT22;29904;51.058;5.378;2023-04-03T14:04:26;11.00;97.00
44229;DHT22;29904;51.058;5.378;2023-04-03T14:06:56;11.00;96.70
44229;DHT22;29904;51.058;5.378;2023-04-03T14:09:24;10.90;97.40
44229;DHT22;29904;51.058;5.378;2023-04-03T14:12:04;10.90;97.20
44229;DHT22;29904;51.058;5.378;2023-04-03T14:14:33;11.00;98.30
44229;DHT22;29904;51.058;5.378;2023-04-03T14:17:02;10.90;95.40
44229;DHT22;29904;51.058;5.378;2023-04-03T14:19:32;10.90;96.50
44229;DHT22;29904;51.058;5.378;2023-04-03T14:21:59;10.70;97.70
44229;DHT22;29904;51.058;5.378;2023-04-03T14:24:28;10.90;96.00
44229;DHT22;29904;51.058;5.378;2023-04-03T14:26:55;10.90;96.00
44229;DHT22;29904;51.058;5.378;2023-04-03T14:29:22;10.90;98.10
44229;DHT22;29904;51.058;5.378;2023-04-03T14:31:49;10.90;97.60
44229;DHT22;29904;51.058;5.378;2023-04-03T14:34:17;11.00;95.70
44229;DHT22;29904;51.058;5.378;2023-04-03T14:36:44;11.00;97.80
44229;DHT22;29904;51.058;5.378;2023-04-03T14:39:16;10.90;96.10
44229;DHT22;29904;51.058;5.378;2023-04-03T14:41:45;10.90;97.90
44229;DHT22;29904;51.058;5.378;2023-04-03T14:44:11;11.10;97.20
44229;DHT22;29904;51.058;5.378;2023-04-03T14:46:40;11.10;96.40
44229;DHT22;29904;51.058;5.378;2023-04-03T14:49:19;10.90;95.60
44229;DHT22;29904;51.058;5.378;2023-04-03T14:51:47;10.80;98.30
44229;DHT22;29904;51.058;5.378;2023-04-03T14:54:15;11.00;99.20
44229;DHT22;29904;51.058;5.378;2023-04-03T14:56:42;11.20;98.70
44229;DHT22;29904;51.058;5.378;2023-04-03T14:59:11;11.20;96.70
44229;DHT22;29904;51.058;5.378;2023-04-03T15:01:37;11.10;96.60
44229;DHT22;29904;51.058;5.378;2023-04-03T15:04:10;11.10;95.70
44229;DHT22;29904;51.058;5.378;2023-04-03T15:06:37;10.90;94.90
44229;DHT22;29904;51.058;5.378;2023-04-03T15:09:03;10.90;95.70
44229;DHT22;29904;51.058;5.378;2023-04-03T15:11:28;10.90;96.30
44229;DHT22;29904;51.058;5.378;2023-04-03T15:13:54;11.00;97.10
44229;DHT22;29904;51.058;5.378;2023-04-03T15:16:20;11.00;96.10
44229;DHT22;29904;51.058;5.378;2023-04-03T15:18:47;11.00;95.50
44229;DHT22;29904;51.058;5.378;2023-04-03T15:21:13;11.00;96.70
44229;DHT22;29904;51.058;5.378;2023-04-03T15:23:39;11.00;96.20
44229;DHT22;29904;51.058;5.378;2023-04-03T15:26:07;10.90;95.50
44229;DHT22;29904;51.058;5.378;2023-04-03T15:28:37;10.80;96.00
44229;DHT22;29904;51.058;5.378;2023-04-03T15:31:03;10.70;95.70
44229;DHT22;29904;51.058;5.378;2023-04-03T15:33:30;10.70;96.70
44229;DHT22;29904;51.058;5.378;2023-04-03T15:35:58;10.60;96.50
44229;DHT22;29904;51.058;5.378;2023-04-03T15:38:24;10.60;96.50
44229;DHT22;29904;51.058;5.378;2023-04-03T15:40:50;10.60;96.70
44229;DHT22;29904;51.058;5.378;2023-04-03T15:43:16;10.50;96.50
44229;DHT22;29904;51.058;5.378;2023-04-03T15:45:42;10.60;96.70
44229;DHT22;29904;51.058;5.378;2023-04-03T15:48:08;10.60;97.50
44229;DHT22;29904;51.058;5.378;2023-04-03T15:50:37;10.50;97.40
44229;DHT22;29904;51.058;5.378;2023-04-03T15:53:03;10.50;96.50
44229;DHT22;29904;51.058;5.378;2023-04-03T15:55:31;10.60;97.60
44229;DHT22;29904;51.058;5.378;2023-04-03T15:57:59;10.40;95.70
44229;DHT22;29904;51.058;5.378;2023-04-03T16:00:26;10.30;97.60
44229;DHT22;29904;51.058;5.378;2023-04-03T16:02:56;10.30;96.50
44229;DHT22;29904;51.058;5.378;2023-04-03T16:05:23;10.20;97.60
44229;DHT22;29904;51.058;5.378;2023-04-03T16:07:50;10.20;96.40
44229;DHT22;29904;51.058;5.378;2023-04-03T16:10:17;10.10;96.80
44229;DHT22;29904;51.058;5.378;2023-04-03T16:12:43;10.10;95.90
44229;DHT22;29904;51.058;5.378;2023-04-03T16:15:11;10.10;96.70
44229;DHT22;29904;51.058;5.378;2023-04-03T16:17:39;10.10;97.40
44229;DHT22;29904;51.058;5.378;2023-04-03T16:20:07;10.00;97.40
44229;DHT22;29904;51.058;5.378;2023-04-03T16:22:35;10.00;98.50
44229;DHT22;29904;51.058;5.378;2023-04-03T16:25:02;10.00;96.50
44229;DHT22;29904;51.058;5.378;2023-04-03T16:27:28;10.00;96.70
44229;DHT22;29904;51.058;5.378;2023-04-03T16:29:58;9.90;95.60
44229;DHT22;29904;51.058;5.378;2023-04-03T16:32:27;9.90;96.40
44229;DHT22;29904;51.058;5.378;2023-04-03T16:34:54;9.90;97.10
44229;DHT22;29904;51.058;5.378;2023-04-03T16:37:20;9.80;97.30
44229;DHT22;29904;51.058;5.378;2023-04-03T16:39:46;9.80;97.30
44229;DHT22;29904;51.058;5.378;2023-04-03T16:42:12;9.80;97.50
44229;DHT22;29904;51.058;5.378;2023-04-03T16:44:38;9.70;98.00
44229;DHT22;29904;51.058;5.378;2023-04-03T16:47:05;9.60;97.40
44229;DHT22;29904;51.058;5.378;2023-04-03T16:49:31;9.50;97.50
44229;DHT22;29904;51.058;5.378;2023-04-03T16:52:03;9.50;98.80
44229;DHT22;29904;51.058;5.378;2023-04-03T16:54:31;9.50;98.70
44229;DHT22;29904;51.058;5.378;2023-04-03T16:56:57;9.50;97.60
44229;DHT22;29904;51.058;5.378;2023-04-03T16:59:23;9.40;97.50
44229;DHT22;29904;51.058;5.378;2023-04-03T17:01:49;9.40;97.50
44229;DHT22;29904;51.058;5.378;2023-04-03T17:04:17;9.30;97.50
44229;DHT22;29904;51.058;5.378;2023-04-03T17:06:45;9.30;97.80
44229;DHT22;29904;51.058;5.378;2023-04-03T17:09:11;9.20;98.20
44229;DHT22;29904;51.058;5.378;2023-04-03T17:11:37;9.30;98.00
44229;DHT22;29904;51.058;5.378;2023-04-03T17:14:04;9.20;98.30
44229;DHT22;29904;51.058;5.378;2023-04-03T17:16:31;9.10;97.20
44229;DHT22;29904;51.058;5.378;2023-04-03T17:18:58;9.00;98.10
44229;DHT22;29904;51.058;5.378;2023-04-03T17:21:24;8.90;98.30
44229;DHT22;29904;51.058;5.378;2023-04-03T17:23:54;8.90;98.30
44229;DHT22;29904;51.058;5.378;2023-04-03T17:26:23;8.80;98.80
44229;DHT22;29904;51.058;5.378;2023-04-03T17:28:49;8.80;98.60
44229;DHT22;29904;51.058;5.378;2023-04-03T17:31:15;8.70;99.30
44229;DHT22;29904;51.058;5.378;2023-04-03T17:33:41;8.70;98.40
44229;DHT22;29904;51.058;5.378;2023-04-03T17:36:07;8.60;99.00
44229;DHT22;29904;51.058;5.378;2023-04-03T17:38:33;8.60;99.50
44229;DHT22;29904;51.058;5.378;2023-04-03T17:41:00;8.50;99.90
44229;DHT22;29904;51.058;5.378;2023-04-03T17:43:26;8.40;99.90
44229;DHT22;29904;51.058;5.378;2023-04-03T17:45:52;8.40;99.80